Time;durP1;ratioP1;P1;durP2;ratioP2;P2;SDS_P1;SDS_P2;PMS_P1;PMS_P2;Temp;Humidity;BMP_temperature;BMP_pressure;BME280_temperature;BME280_humidity;BME280_pressure;Samples;Min_cycle;Max_cycle;Signal;HPM_P1;HPM_P2
2022/04/27 00:02:04;;;;;;;7.43;3.65;;;;;;;;;;4996807;28;20472;-66
2022/04/27 00:04:30;;;;;;;6.80;3.70;;;;;;;;;;5007438;28;20030;-66
2022/04/27 00:06:56;;;;;;;11.75;3.97;;;;;;;;;;4999492;28;20033;-66
2022/04/27 00:09:22;;;;;;;11.60;4.22;;;;;;;;;;4999702;28;20380;-66
2022/04/27 00:11:48;;;;;;;12.35;4.53;;;;;;;;;;4998388;28;20038;-66
2022/04/27 00:14:14;;;;;;;6.68;4.25;;;;;;;;;;4996542;28;20030;-66
2022/04/27 00:16:41;;;;;;;6.90;4.18;;;;;;;;;;5009701;28;20022;-66
2022/04/27 00:19:07;;;;;;;7.28;3.95;;;;;;;;;;5001318;28;20387;-66
2022/04/27 00:21:33;;;;;;;8.57;4.28;;;;;;;;;;5005412;28;20042;-66
2022/04/27 00:23:59;;;;;;;9.63;4.80;;;;;;;;;;5005607;28;20558;-66
2022/04/27 00:26:25;;;;;;;9.25;4.88;;;;;;;;;;4998581;28;20112;-68
2022/04/27 00:28:52;;;;;;;12.98;5.70;;;;;;;;;;4996768;28;20296;-66
2022/04/27 00:31:18;;;;;;;10.75;5.28;;;;;;;;;;5003759;28;20391;-66
2022/04/27 00:33:45;;;;;;;8.57;4.80;;;;;;;;;;4998140;28;20498;-66
2022/04/27 00:36:11;;;;;;;8.02;4.28;;;;;;;;;;4994929;28;20025;-66
2022/04/27 00:38:37;;;;;;;7.55;4.40;;;;;;;;;;4998704;28;20026;-66
2022/04/27 00:41:03;;;;;;;9.45;5.18;;;;;;;;;;5009359;28;20036;-66
2022/04/27 00:43:39;;;;;;;7.38;4.55;;;;;;;;;;5010132;28;20534;-66
2022/04/27 00:46:05;;;;;;;7.85;4.35;;;;;;;;;;4997835;28;20057;-66
2022/04/27 00:48:31;;;;;;;6.38;4.15;;;;;;;;;;5006932;28;20022;-66
2022/04/27 00:51:00;;;;;;;11.95;4.80;;;;;;;;;;5006086;28;20100;-67
2022/04/27 00:56:32;;;;;;;10.00;4.63;;;;;;;;;;5011112;28;20044;-66
2022/04/27 00:58:58;;;;;;;8.88;5.28;;;;;;;;;;4999373;28;20030;-67
2022/04/27 01:01:24;;;;;;;10.60;5.13;;;;;;;;;;4997532;28;20065;-66
2022/04/27 01:03:50;;;;;;;7.95;4.50;;;;;;;;;;5001129;28;20029;-66
2022/04/27 01:06:16;;;;;;;11.85;5.63;;;;;;;;;;5002730;28;20464;-66
2022/04/27 01:08:42;;;;;;;15.63;5.82;;;;;;;;;;4991198;28;20407;-66
2022/04/27 01:11:09;;;;;;;12.48;6.35;;;;;;;;;;5004918;28;20594;-66
2022/04/27 02:04:55;;;;;;;10.18;6.05;;;;;;;;;;5036031;22;20132;-66
2022/04/27 02:07:21;;;;;;;11.30;6.10;;;;;;;;;;5029149;28;20064;-66
2022/04/27 02:09:47;;;;;;;9.65;5.53;;;;;;;;;;5017321;28;21113;-66
2022/04/27 02:12:13;;;;;;;11.70;5.60;;;;;;;;;;5013595;28;20033;-66
2022/04/27 02:14:39;;;;;;;10.23;6.00;;;;;;;;;;5017315;28;20069;-66
2022/04/27 02:17:05;;;;;;;15.02;6.00;;;;;;;;;;5026096;28;20356;-66
2022/04/27 02:19:31;;;;;;;11.32;5.97;;;;;;;;;;5016817;28;20037;-66
2022/04/27 02:21:58;;;;;;;11.05;5.65;;;;;;;;;;5027604;28;20306;-66
2022/04/27 02:24:25;;;;;;;12.75;6.00;;;;;;;;;;5026207;28;20112;-66
2022/04/27 02:26:52;;;;;;;14.27;5.70;;;;;;;;;;5010070;28;20088;-67
2022/04/27 02:29:20;;;;;;;9.88;5.70;;;;;;;;;;5005271;28;20026;-66
2022/04/27 02:31:46;;;;;;;15.75;5.68;;;;;;;;;;5010961;28;20026;-66
2022/04/27 02:34:12;;;;;;;11.35;5.53;;;;;;;;;;5008914;28;20041;-66
2022/04/27 02:36:38;;;;;;;9.57;5.90;;;;;;;;;;5026820;28;20029;-66
2022/04/27 02:39:04;;;;;;;9.18;5.63;;;;;;;;;;5011332;28;20022;-67
2022/04/27 02:41:30;;;;;;;13.02;6.03;;;;;;;;;;5026271;28;20033;-66
2022/04/27 02:43:56;;;;;;;15.82;6.03;;;;;;;;;;5018288;28;20033;-66
2022/04/27 02:46:22;;;;;;;12.05;5.82;;;;;;;;;;5016452;28;20076;-66
2022/04/27 02:54:17;;;;;;;7.82;4.78;;;;;;;;;;5030669;28;20036;-66
2022/04/27 02:56:43;;;;;;;10.98;6.13;;;;;;;;;;5014174;28;20553;-66
2022/04/27 02:59:09;;;;;;;8.57;5.18;;;;;;;;;;5022888;28;20072;-66
2022/04/27 03:01:36;;;;;;;9.88;5.72;;;;;;;;;;5025849;28;20381;-66
2022/04/27 03:04:02;;;;;;;11.13;5.68;;;;;;;;;;5021506;28;171907;-66
2022/04/27 03:06:28;;;;;;;8.50;5.22;;;;;;;;;;5020109;28;20029;-67
2022/04/27 03:08:54;;;;;;;9.25;5.78;;;;;;;;;;5022888;28;20018;-66
2022/04/27 03:11:20;;;;;;;11.77;6.38;;;;;;;;;;5021935;28;20391;-66
2022/04/27 03:13:46;;;;;;;9.73;5.80;;;;;;;;;;5022379;28;20026;-67
2022/04/27 03:16:12;;;;;;;10.65;5.85;;;;;;;;;;5030084;28;20470;-66
2022/04/27 03:18:38;;;;;;;9.30;5.25;;;;;;;;;;5020114;28;20030;-66
2022/04/27 03:21:04;;;;;;;11.48;5.70;;;;;;;;;;5019713;28;20038;-67
2022/04/27 03:23:30;;;;;;;11.13;5.75;;;;;;;;;;5010716;28;20018;-66
2022/04/27 03:25:56;;;;;;;11.77;6.32;;;;;;;;;;5029692;28;20433;-66
2022/04/27 03:28:22;;;;;;;7.35;5.05;;;;;;;;;;5030487;28;20032;-66
2022/04/27 03:30:49;;;;;;;11.77;5.80;;;;;;;;;;5023112;28;20033;-67
2022/04/27 03:33:15;;;;;;;10.15;5.38;;;;;;;;;;5014720;28;20069;-67
2022/04/27 03:35:41;;;;;;;10.15;6.00;;;;;;;;;;5031399;28;20029;-66
2022/04/27 03:38:08;;;;;;;11.05;6.63;;;;;;;;;;5019543;28;20489;-67
2022/04/27 03:40:35;;;;;;;8.70;5.53;;;;;;;;;;5019025;28;20091;-66
2022/04/27 03:43:01;;;;;;;10.50;5.82;;;;;;;;;;5018416;28;20030;-67
2022/04/27 03:45:27;;;;;;;12.00;6.13;;;;;;;;;;5013354;28;20387;-66
2022/04/27 03:47:53;;;;;;;11.98;6.03;;;;;;;;;;5020751;28;20079;-66
2022/04/27 03:50:19;;;;;;;10.25;5.63;;;;;;;;;;5009931;28;20029;-66
2022/04/27 03:52:45;;;;;;;12.80;6.32;;;;;;;;;;5011483;28;20036;-66
2022/04/27 03:55:12;;;;;;;12.57;6.60;;;;;;;;;;5019270;28;20479;-66
2022/04/27 03:57:38;;;;;;;11.15;5.78;;;;;;;;;;5019372;28;20475;-66
2022/04/27 04:00:07;;;;;;;10.52;5.75;;;;;;;;;;5027834;28;20022;-66
2022/04/27 04:02:33;;;;;;;12.63;6.72;;;;;;;;;;5026423;28;20038;-66
2022/04/27 04:04:59;;;;;;;13.98;6.40;;;;;;;;;;5008330;28;20038;-66
2022/04/27 04:07:25;;;;;;;12.32;5.72;;;;;;;;;;5024284;28;20403;-66
2022/04/27 04:09:51;;;;;;;14.63;6.72;;;;;;;;;;5020973;28;20091;-65
2022/04/27 04:12:17;;;;;;;12.73;6.20;;;;;;;;;;5028080;28;20083;-67
2022/04/27 04:14:43;;;;;;;11.52;6.18;;;;;;;;;;5014185;28;20030;-66
2022/04/27 04:17:09;;;;;;;13.38;6.22;;;;;;;;;;5018050;28;20034;-66
2022/04/27 04:19:35;;;;;;;16.38;5.57;;;;;;;;;;5016275;28;20429;-67
2022/04/27 04:22:01;;;;;;;10.70;6.05;;;;;;;;;;5008628;28;20254;-67
2022/04/27 04:24:27;;;;;;;11.18;5.82;;;;;;;;;;5016189;28;20396;-66
2022/04/27 04:29:38;;;;;;;10.40;5.80;;;;;;;;;;5022166;28;20049;-66
2022/04/27 04:32:04;;;;;;;9.05;5.60;;;;;;;;;;5026585;28;20263;-69
2022/04/27 04:34:30;;;;;;;11.85;6.60;;;;;;;;;;5017624;28;20030;-67
2022/04/27 04:36:56;;;;;;;11.45;6.43;;;;;;;;;;5040752;28;20164;-66
2022/04/27 04:39:22;;;;;;;11.25;6.32;;;;;;;;;;5015108;28;20536;-66
2022/04/27 04:41:48;;;;;;;11.50;6.57;;;;;;;;;;5021658;28;20087;-68
2022/04/27 04:44:14;;;;;;;13.32;6.43;;;;;;;;;;5017071;28;20521;-70
2022/04/27 04:46:40;;;;;;;14.20;6.72;;;;;;;;;;5012411;28;20034;-72
2022/04/27 04:49:06;;;;;;;13.55;6.60;;;;;;;;;;5017518;28;21549;-70
2022/04/27 04:51:32;;;;;;;18.58;7.13;;;;;;;;;;5018831;28;20030;-69
2022/04/27 04:53:58;;;;;;;14.18;6.70;;;;;;;;;;5028683;28;20075;-69
2022/04/27 04:56:24;;;;;;;13.32;6.45;;;;;;;;;;5021084;28;20022;-70
2022/04/27 04:58:51;;;;;;;13.32;7.22;;;;;;;;;;5021206;28;20087;-70
2022/04/27 05:01:17;;;;;;;19.40;9.57;;;;;;;;;;5024988;28;20117;-70
2022/04/27 05:03:43;;;;;;;20.83;8.18;;;;;;;;;;5016550;28;20266;-71
2022/04/27 05:06:09;;;;;;;15.18;7.78;;;;;;;;;;5020541;28;20083;-69
2022/04/27 05:08:35;;;;;;;14.93;8.02;;;;;;;;;;5021997;28;20075;-69
2022/04/27 05:11:01;;;;;;;15.07;7.88;;;;;;;;;;5012906;28;20033;-71
2022/04/27 05:13:27;;;;;;;14.20;7.50;;;;;;;;;;5021181;28;20025;-70
2022/04/27 05:15:53;;;;;;;12.30;7.45;;;;;;;;;;5029608;28;20025;-70
2022/04/27 05:18:19;;;;;;;19.23;6.80;;;;;;;;;;5019790;28;20052;-69
2022/04/27 05:20:45;;;;;;;13.57;7.40;;;;;;;;;;5014692;28;20033;-69
2022/04/27 05:23:16;;;;;;;25.85;7.88;;;;;;;;;;5014103;28;20029;-69
2022/04/27 05:25:42;;;;;;;12.05;6.78;;;;;;;;;;5013367;28;20022;-70
2022/04/27 05:28:07;;;;;;;15.25;7.18;;;;;;;;;;5021196;28;20550;-69
2022/04/27 05:33:19;;;;;;;16.42;7.82;;;;;;;;;;5022661;28;20056;-70
2022/04/27 05:35:45;;;;;;;13.70;6.75;;;;;;;;;;5020072;28;20036;-69
2022/04/27 05:38:11;;;;;;;14.15;7.32;;;;;;;;;;5008830;28;20041;-69
2022/04/27 05:40:41;;;;;;;15.93;7.72;;;;;;;;;;5024920;28;20022;-69
2022/04/27 05:43:09;;;;;;;18.37;8.13;;;;;;;;;;5001092;28;20026;-69
2022/04/27 05:45:35;;;;;;;12.98;7.45;;;;;;;;;;5017001;28;20075;-69
2022/04/27 05:48:01;;;;;;;15.60;8.52;;;;;;;;;;5020199;28;20041;-70
2022/04/27 05:50:27;;;;;;;14.45;8.23;;;;;;;;;;5019377;28;20036;-69
2022/04/27 05:52:58;;;;;;;16.38;8.07;;;;;;;;;;5018716;28;20034;-70
2022/04/27 05:55:24;;;;;;;16.98;9.52;;;;;;;;;;5017546;28;20029;-69
2022/04/27 05:57:51;;;;;;;15.52;8.85;;;;;;;;;;5017274;28;20120;-69
2022/04/27 06:00:17;;;;;;;14.70;8.60;;;;;;;;;;5017655;28;20029;-69
2022/04/27 06:02:44;;;;;;;15.40;9.15;;;;;;;;;;5009413;28;20153;-70
2022/04/27 06:05:11;;;;;;;15.05;9.13;;;;;;;;;;5009228;28;20081;-70
2022/04/27 06:07:37;;;;;;;16.58;9.88;;;;;;;;;;5017236;28;20026;-69
2022/04/27 06:10:04;;;;;;;18.67;10.35;;;;;;;;;;5025494;28;20029;-69
2022/04/27 06:12:35;;;;;;;17.35;9.77;;;;;;;;;;5017533;28;20030;-69
2022/04/27 06:15:02;;;;;;;14.95;9.02;;;;;;;;;;5027489;28;20064;-70
2022/04/27 06:17:28;;;;;;;18.65;9.73;;;;;;;;;;5028713;28;20105;-69
2022/04/27 06:19:54;;;;;;;17.30;10.18;;;;;;;;;;5016526;28;20041;-70
2022/04/27 06:22:20;;;;;;;15.95;9.45;;;;;;;;;;5022716;28;20049;-69
2022/04/27 06:24:46;;;;;;;17.55;9.60;;;;;;;;;;5028826;28;20030;-69
2022/04/27 06:27:12;;;;;;;15.40;9.80;;;;;;;;;;5014569;28;20025;-70
2022/04/27 06:29:38;;;;;;;18.80;10.90;;;;;;;;;;5024877;28;20525;-69
2022/04/27 06:32:05;;;;;;;21.23;10.82;;;;;;;;;;5019835;28;20026;-69
2022/04/27 06:34:31;;;;;;;16.83;11.18;;;;;;;;;;5013322;28;20084;-70
2022/04/27 06:36:57;;;;;;;19.83;12.10;;;;;;;;;;5005751;28;20034;-69
2022/04/27 06:39:23;;;;;;;18.15;11.25;;;;;;;;;;5009738;28;20025;-69
2022/04/27 06:41:49;;;;;;;21.50;11.63;;;;;;;;;;5008032;28;20026;-70
2022/04/27 06:44:15;;;;;;;20.80;11.70;;;;;;;;;;5021170;28;20022;-69
2022/04/27 06:46:41;;;;;;;17.73;10.80;;;;;;;;;;5015913;28;20030;-69
2022/04/27 06:49:07;;;;;;;22.17;10.63;;;;;;;;;;5014464;28;20064;-70
2022/04/27 06:51:36;;;;;;;15.95;9.82;;;;;;;;;;5016538;28;20033;-69
2022/04/27 06:57:10;;;;;;;17.95;10.65;;;;;;;;;;5022738;28;20029;-70
2022/04/27 06:59:36;;;;;;;15.63;9.40;;;;;;;;;;5021835;28;20029;-70
2022/04/27 07:02:03;;;;;;;17.30;10.23;;;;;;;;;;5024712;28;20071;-70
2022/04/27 07:04:31;;;;;;;15.27;9.30;;;;;;;;;;5023978;28;20376;-69
2022/04/27 07:06:57;;;;;;;15.50;9.80;;;;;;;;;;5007730;28;20036;-69
2022/04/27 07:09:23;;;;;;;15.55;8.98;;;;;;;;;;5016345;28;20402;-69
2022/04/27 07:11:49;;;;;;;13.45;8.55;;;;;;;;;;5014247;28;20026;-70
2022/04/27 07:14:16;;;;;;;14.85;7.97;;;;;;;;;;5024293;28;20029;-69
2022/04/27 07:16:43;;;;;;;12.52;7.93;;;;;;;;;;5030062;28;20026;-71
2022/04/27 07:19:09;;;;;;;12.95;7.47;;;;;;;;;;5022639;28;20124;-70
2022/04/27 07:21:35;;;;;;;13.77;8.57;;;;;;;;;;5021881;28;20490;-70
2022/04/27 07:24:02;;;;;;;12.73;8.02;;;;;;;;;;5014608;28;20033;-70
2022/04/27 07:26:28;;;;;;;13.93;7.53;;;;;;;;;;5020897;28;20038;-71
2022/04/27 07:28:55;;;;;;;13.30;7.60;;;;;;;;;;5028132;28;20151;-70
2022/04/27 07:31:22;;;;;;;12.13;7.32;;;;;;;;;;5021157;28;20022;-70
2022/04/27 07:33:48;;;;;;;12.38;7.38;;;;;;;;;;5011769;28;20034;-70
2022/04/27 07:36:14;;;;;;;16.90;7.65;;;;;;;;;;5014529;28;20403;-70
2022/04/27 07:38:40;;;;;;;12.35;7.47;;;;;;;;;;5022516;28;20475;-70
2022/04/27 07:41:06;;;;;;;10.00;6.20;;;;;;;;;;5002519;28;20087;-70
2022/04/27 07:43:32;;;;;;;10.70;5.53;;;;;;;;;;5011964;28;20053;-70
2022/04/27 07:45:59;;;;;;;10.63;6.30;;;;;;;;;;5021382;28;20468;-70
2022/04/27 07:48:25;;;;;;;13.30;6.95;;;;;;;;;;5011376;28;20030;-70
2022/04/27 07:50:51;;;;;;;11.80;7.07;;;;;;;;;;5015007;28;20049;-70
2022/04/27 07:53:17;;;;;;;11.30;7.28;;;;;;;;;;5026363;28;20399;-70
2022/04/27 07:55:43;;;;;;;11.18;7.22;;;;;;;;;;5025479;28;20041;-70
2022/04/27 07:58:09;;;;;;;12.40;7.25;;;;;;;;;;5019635;28;20030;-70
2022/04/27 08:00:36;;;;;;;12.88;7.18;;;;;;;;;;5019256;28;20026;-70
2022/04/27 08:03:02;;;;;;;12.18;7.30;;;;;;;;;;5021845;28;21726;-70
2022/04/27 08:08:31;;;;;;;17.42;6.97;;;;;;;;;;5064908;22;20394;-70
2022/04/27 08:10:57;;;;;;;10.85;6.88;;;;;;;;;;5042973;28;20052;-71
2022/04/27 08:13:24;;;;;;;11.00;6.85;;;;;;;;;;5033307;28;20064;-72
2022/04/27 08:15:50;;;;;;;12.55;7.25;;;;;;;;;;5050369;28;20024;-72
2022/04/27 08:18:16;;;;;;;12.82;6.80;;;;;;;;;;5046517;28;20029;-71
2022/04/27 08:23:29;;;;;;;11.80;6.72;;;;;;;;;;5044451;28;20113;-70
2022/04/27 08:25:55;;;;;;;10.65;6.43;;;;;;;;;;5031208;28;20027;-71
2022/04/27 08:28:21;;;;;;;11.00;6.22;;;;;;;;;;5032419;28;20024;-71
2022/04/27 08:30:48;;;;;;;11.48;5.82;;;;;;;;;;5049652;28;20055;-71
2022/04/27 08:33:14;;;;;;;11.32;5.70;;;;;;;;;;5065651;28;20068;-71
2022/04/27 08:35:41;;;;;;;10.18;6.28;;;;;;;;;;5029010;28;20761;-70
2022/04/27 08:38:07;;;;;;;17.17;5.95;;;;;;;;;;5048832;28;20077;-71
2022/04/27 08:40:37;;;;;;;10.75;5.53;;;;;;;;;;5051140;28;20485;-71
2022/04/27 08:43:04;;;;;;;8.18;5.15;;;;;;;;;;5032292;28;20021;-71
2022/04/27 08:45:32;;;;;;;8.15;5.30;;;;;;;;;;5033949;28;20028;-71
2022/04/27 08:47:59;;;;;;;12.90;6.07;;;;;;;;;;5042083;28;20032;-71
2022/04/27 08:50:25;;;;;;;11.02;6.10;;;;;;;;;;5050978;28;20079;-70
2022/04/27 08:52:52;;;;;;;8.93;5.95;;;;;;;;;;5050037;28;20044;-71
2022/04/27 08:55:19;;;;;;;9.25;5.53;;;;;;;;;;5050703;28;20033;-71
2022/04/27 08:57:45;;;;;;;8.52;4.75;;;;;;;;;;5050867;28;20042;-70
2022/04/27 09:00:13;;;;;;;8.60;5.07;;;;;;;;;;5032974;28;20037;-71
2022/04/27 09:02:39;;;;;;;9.25;5.32;;;;;;;;;;5049998;28;20035;-71
2022/04/27 09:05:07;;;;;;;8.77;4.55;;;;;;;;;;5049338;28;20031;-71
2022/04/27 09:07:40;;;;;;;12.07;5.40;;;;;;;;;;5048101;28;20045;-71
2022/04/27 09:10:07;;;;;;;10.07;6.03;;;;;;;;;;5046861;28;20306;-70
2022/04/27 09:12:34;;;;;;;9.27;5.95;;;;;;;;;;5045128;28;20025;-71
2022/04/27 09:15:04;;;;;;;9.23;5.85;;;;;;;;;;5049561;28;20033;-71
2022/04/27 09:23:01;;;;;;;6.07;3.97;;;;;;;;;;5048125;28;20057;-71
2022/04/27 09:28:30;;;;;;;6.45;4.15;;;;;;;;;;5042890;28;20040;-71
2022/04/27 09:30:57;;;;;;;5.25;3.58;;;;;;;;;;5057024;28;20032;-71
2022/04/27 09:33:30;;;;;;;6.32;3.90;;;;;;;;;;5028370;28;20087;-71
2022/04/27 09:35:56;;;;;;;5.97;4.00;;;;;;;;;;5045847;28;20060;-71
2022/04/27 09:38:22;;;;;;;6.55;4.03;;;;;;;;;;5048027;28;20102;-71
2022/04/27 09:40:54;;;;;;;7.00;3.95;;;;;;;;;;5045721;28;20462;-71
2022/04/27 09:43:39;;;;;;;8.32;4.20;;;;;;;;;;5049768;28;20028;-70
2022/04/27 09:46:15;;;;;;;6.40;3.60;;;;;;;;;;5047272;28;20033;-71
2022/04/27 09:48:42;;;;;;;7.78;4.20;;;;;;;;;;5032283;28;20469;-70
2022/04/27 09:51:12;;;;;;;11.52;4.25;;;;;;;;;;5049651;28;20098;-69
2022/04/27 09:53:41;;;;;;;8.35;4.88;;;;;;;;;;5048408;28;20025;-70
2022/04/27 09:56:10;;;;;;;9.50;4.97;;;;;;;;;;5027373;28;20022;-70
2022/04/27 09:58:43;;;;;;;8.48;5.25;;;;;;;;;;5044162;28;20091;-70
2022/04/27 10:01:11;;;;;;;11.60;4.85;;;;;;;;;;5049394;28;20021;-70
2022/04/27 10:03:39;;;;;;;9.68;5.40;;;;;;;;;;5048837;28;20065;-70
2022/04/27 10:06:05;;;;;;;8.35;4.63;;;;;;;;;;5047721;28;20033;-71
2022/04/27 10:08:32;;;;;;;11.85;5.68;;;;;;;;;;5047426;28;20035;-72
2022/04/27 10:10:59;;;;;;;10.02;5.10;;;;;;;;;;5048266;28;20033;-70
2022/04/27 10:13:25;;;;;;;6.60;4.40;;;;;;;;;;5043440;28;20021;-71
2022/04/27 10:15:52;;;;;;;11.77;4.70;;;;;;;;;;5059158;28;20057;-70
2022/04/27 10:18:19;;;;;;;8.63;4.68;;;;;;;;;;5042024;28;20516;-70
2022/04/27 10:20:45;;;;;;;6.53;3.95;;;;;;;;;;5051699;28;20109;-70
2022/04/27 10:23:19;;;;;;;7.10;4.07;;;;;;;;;;5030693;28;20498;-71
2022/04/27 10:26:05;;;;;;;6.38;3.70;;;;;;;;;;5048426;28;20025;-71
2022/04/27 10:28:34;;;;;;;6.13;3.30;;;;;;;;;;5052790;28;20049;-71
2022/04/27 10:31:02;;;;;;;5.03;2.97;;;;;;;;;;5032656;28;20064;-71
2022/04/27 10:33:41;;;;;;;3.97;2.75;;;;;;;;;;5049638;28;20159;-71
2022/04/27 10:36:31;;;;;;;4.78;2.58;;;;;;;;;;5058867;28;20474;-71
2022/04/27 10:39:12;;;;;;;5.10;3.30;;;;;;;;;;5042490;28;20037;-71
2022/04/27 10:42:01;;;;;;;3.85;2.50;;;;;;;;;;5052734;28;20036;-71
2022/04/27 10:45:03;;;;;;;4.97;2.95;;;;;;;;;;5018255;28;20045;-69
2022/04/27 10:47:34;;;;;;;4.38;3.40;;;;;;;;;;5046980;28;20135;-69
2022/04/27 10:50:19;;;;;;;6.80;4.35;;;;;;;;;;5034397;28;20027;-70
2022/04/27 10:52:55;;;;;;;4.78;3.53;;;;;;;;;;5031786;28;20456;-71
2022/04/27 10:55:40;;;;;;;6.57;3.88;;;;;;;;;;5033250;28;20033;-70
2022/04/27 10:58:13;;;;;;;5.68;3.90;;;;;;;;;;5051683;28;20020;-71
2022/04/27 11:00:58;;;;;;;7.07;4.20;;;;;;;;;;5051683;28;20068;-71
2022/04/27 11:03:28;;;;;;;6.55;4.13;;;;;;;;;;5036583;28;20086;-70
2022/04/27 11:05:57;;;;;;;8.90;3.53;;;;;;;;;;5050189;28;20277;-70
2022/04/27 11:08:29;;;;;;;4.03;3.00;;;;;;;;;;5045456;28;20041;-72
2022/04/27 11:10:55;;;;;;;4.35;3.13;;;;;;;;;;5066999;28;20032;-71
2022/04/27 11:13:27;;;;;;;6.15;3.47;;;;;;;;;;5051847;28;20059;-71
2022/04/27 11:15:53;;;;;;;5.25;3.40;;;;;;;;;;5043631;28;20029;-70
2022/04/27 11:18:19;;;;;;;5.07;3.10;;;;;;;;;;5051332;28;20530;-71
2022/04/27 11:20:45;;;;;;;5.10;3.45;;;;;;;;;;5051643;28;20108;-70
2022/04/27 11:23:22;;;;;;;5.30;3.60;;;;;;;;;;5044158;28;20033;-70
2022/04/27 11:25:52;;;;;;;5.50;3.10;;;;;;;;;;5048674;28;20099;-71
2022/04/27 11:28:18;;;;;;;4.85;3.15;;;;;;;;;;5044847;28;20039;-71
2022/04/27 11:30:45;;;;;;;4.10;3.38;;;;;;;;;;5030174;28;20018;-70
2022/04/27 11:33:11;;;;;;;4.97;3.05;;;;;;;;;;5051869;28;20032;-70
2022/04/27 11:35:38;;;;;;;4.75;2.85;;;;;;;;;;5051652;28;20024;-70
2022/04/27 11:38:05;;;;;;;4.22;2.83;;;;;;;;;;5032833;28;20029;-70
2022/04/27 11:40:34;;;;;;;4.15;2.70;;;;;;;;;;5032498;28;20040;-70
2022/04/27 11:43:00;;;;;;;3.13;2.45;;;;;;;;;;5049941;28;20037;-71
2022/04/27 11:45:27;;;;;;;3.67;2.50;;;;;;;;;;5050773;28;20103;-70
2022/04/27 11:47:57;;;;;;;4.22;2.55;;;;;;;;;;5031715;28;20032;-70
2022/04/27 11:50:24;;;;;;;6.25;2.80;;;;;;;;;;5030619;28;20018;-69
2022/04/27 11:52:59;;;;;;;4.00;2.78;;;;;;;;;;5044770;28;20026;-70
2022/04/27 11:55:25;;;;;;;6.97;2.40;;;;;;;;;;5049914;28;20033;-70
2022/04/27 11:57:51;;;;;;;6.18;2.92;;;;;;;;;;5051833;28;20029;-70
2022/04/27 12:00:21;;;;;;;5.22;3.45;;;;;;;;;;5051384;28;20025;-71
2022/04/27 12:02:47;;;;;;;5.38;3.55;;;;;;;;;;5030619;28;20498;-71
2022/04/27 12:05:14;;;;;;;5.10;3.55;;;;;;;;;;5033053;28;20497;-71
2022/04/27 12:07:40;;;;;;;5.68;3.20;;;;;;;;;;5042753;28;20029;-70
2022/04/27 12:10:08;;;;;;;4.90;3.10;;;;;;;;;;5045334;28;20485;-70
2022/04/27 12:12:37;;;;;;;4.30;2.80;;;;;;;;;;5033785;28;20060;-70
2022/04/27 12:15:07;;;;;;;2.85;2.00;;;;;;;;;;5048003;28;20025;-70
2022/04/27 12:17:45;;;;;;;2.95;2.35;;;;;;;;;;5047531;28;20241;-71
2022/04/27 12:20:23;;;;;;;3.63;2.67;;;;;;;;;;5046683;28;20433;-71
2022/04/27 12:22:52;;;;;;;4.90;2.50;;;;;;;;;;5047626;28;20057;-71
2022/04/27 12:25:19;;;;;;;6.22;3.53;;;;;;;;;;5033016;28;20461;-70
2022/04/27 12:27:45;;;;;;;4.03;3.05;;;;;;;;;;5042508;28;20036;-71
2022/04/27 12:30:11;;;;;;;3.55;2.83;;;;;;;;;;5021374;28;20029;-71
2022/04/27 12:32:37;;;;;;;7.30;3.88;;;;;;;;;;5038632;28;20039;-70
2022/04/27 12:37:49;;;;;;;4.40;3.17;;;;;;;;;;5041692;28;20148;-70
2022/04/27 12:40:15;;;;;;;4.20;2.80;;;;;;;;;;5040449;28;20426;-71
2022/04/27 12:43:00;;;;;;;4.68;2.83;;;;;;;;;;5038489;28;20100;-71
2022/04/27 12:45:27;;;;;;;5.53;3.53;;;;;;;;;;5022709;28;20021;-71
2022/04/27 12:47:53;;;;;;;4.07;3.22;;;;;;;;;;5039950;28;20103;-70
2022/04/27 12:50:19;;;;;;;6.10;3.65;;;;;;;;;;5038626;28;20096;-71
2022/04/27 12:52:46;;;;;;;4.80;2.97;;;;;;;;;;5028662;28;20060;-71
2022/04/27 12:55:13;;;;;;;7.63;3.10;;;;;;;;;;5024662;28;20037;-70
2022/04/27 12:57:57;;;;;;;5.00;3.42;;;;;;;;;;5049864;28;20029;-71
2022/04/27 13:00:40;;;;;;;5.53;3.83;;;;;;;;;;5029908;28;20025;-71
2022/04/27 13:03:08;;;;;;;5.53;3.80;;;;;;;;;;5043834;28;20091;-70
2022/04/27 13:05:35;;;;;;;6.93;3.60;;;;;;;;;;5037016;28;20021;-71
2022/04/27 13:08:01;;;;;;;6.10;3.70;;;;;;;;;;5033106;28;20454;-71
2022/04/27 13:13:12;;;;;;;4.65;2.45;;;;;;;;;;5042340;28;20126;-70
2022/04/27 13:15:38;;;;;;;3.28;2.75;;;;;;;;;;5050830;28;20628;-71
2022/04/27 13:18:04;;;;;;;5.28;3.15;;;;;;;;;;5032018;28;20593;-71
2022/04/27 13:20:30;;;;;;;4.32;2.90;;;;;;;;;;5037678;28;20029;-71
2022/04/27 13:22:56;;;;;;;4.43;3.05;;;;;;;;;;5019961;28;20033;-70
2022/04/27 13:25:22;;;;;;;4.55;3.13;;;;;;;;;;5032656;28;20099;-71
2022/04/27 13:27:48;;;;;;;5.13;2.83;;;;;;;;;;5049532;28;20112;-72
2022/04/27 13:30:14;;;;;;;4.35;2.95;;;;;;;;;;5041931;28;20017;-70
2022/04/27 13:32:41;;;;;;;7.60;3.30;;;;;;;;;;5033430;28;20047;-71
2022/04/27 13:35:07;;;;;;;3.83;2.35;;;;;;;;;;5048066;28;20098;-70
2022/04/27 13:37:33;;;;;;;4.15;2.55;;;;;;;;;;5028329;28;20035;-71
2022/04/27 13:39:59;;;;;;;3.85;2.50;;;;;;;;;;5046420;28;20053;-71
2022/04/27 13:42:25;;;;;;;4.13;2.63;;;;;;;;;;5044130;28;20045;-71
2022/04/27 13:44:52;;;;;;;3.05;2.33;;;;;;;;;;5038791;28;20033;-72
2022/04/27 13:47:18;;;;;;;3.85;2.50;;;;;;;;;;5027789;28;20025;-70
2022/04/27 13:49:46;;;;;;;4.10;2.55;;;;;;;;;;5037608;28;20075;-71
2022/04/27 13:52:12;;;;;;;4.50;2.17;;;;;;;;;;5028407;28;20434;-70
2022/04/27 13:54:38;;;;;;;2.83;1.90;;;;;;;;;;5041092;28;20352;-71
2022/04/27 13:57:04;;;;;;;4.20;2.80;;;;;;;;;;5049208;28;20090;-71
2022/04/27 13:59:30;;;;;;;6.03;3.20;;;;;;;;;;5033125;28;20025;-70
2022/04/27 14:01:58;;;;;;;4.20;2.70;;;;;;;;;;5034475;28;20171;-71
2022/04/27 14:04:24;;;;;;;4.22;3.15;;;;;;;;;;5038278;28;20055;-71
2022/04/27 14:06:50;;;;;;;4.82;3.13;;;;;;;;;;5053030;28;20021;-71
2022/04/27 14:09:16;;;;;;;5.05;3.67;;;;;;;;;;5053122;28;20029;-71
2022/04/27 14:14:37;;;;;;;5.45;3.40;;;;;;;;;;5073934;23;20041;-69
2022/04/27 14:19:48;;;;;;;7.70;4.45;;;;;;;;;;5052188;28;20058;-70
2022/04/27 14:22:14;;;;;;;7.00;4.18;;;;;;;;;;5051746;28;20044;-69
2022/04/27 14:24:40;;;;;;;5.93;4.38;;;;;;;;;;5030918;28;20029;-69
2022/04/27 14:27:06;;;;;;;4.90;3.75;;;;;;;;;;5047434;28;20033;-69
2022/04/27 14:29:32;;;;;;;4.82;3.08;;;;;;;;;;5047890;28;20025;-69
2022/04/27 14:32:01;;;;;;;12.35;3.67;;;;;;;;;;5050239;28;20108;-70
2022/04/27 14:34:28;;;;;;;4.50;3.13;;;;;;;;;;5038053;28;20061;-69
2022/04/27 14:36:54;;;;;;;6.75;3.30;;;;;;;;;;5049073;28;20535;-70
2022/04/27 14:39:20;;;;;;;5.10;3.22;;;;;;;;;;5045623;28;20044;-69
2022/04/27 14:41:46;;;;;;;4.93;3.20;;;;;;;;;;5052409;28;20078;-70
2022/04/27 14:44:12;;;;;;;4.65;3.20;;;;;;;;;;5044684;28;20115;-70
2022/04/27 14:46:39;;;;;;;4.00;2.75;;;;;;;;;;5025789;28;20025;-69
2022/04/27 14:49:05;;;;;;;4.47;3.35;;;;;;;;;;5050563;28;20175;-70
2022/04/27 14:51:31;;;;;;;5.57;2.60;;;;;;;;;;5051557;28;20044;-69
2022/04/27 14:53:57;;;;;;;4.32;2.63;;;;;;;;;;5049646;28;20110;-69
2022/04/27 14:56:23;;;;;;;9.13;3.35;;;;;;;;;;5044605;28;20033;-69
2022/04/27 14:58:49;;;;;;;4.13;2.80;;;;;;;;;;5050369;28;20036;-70
2022/04/27 15:01:15;;;;;;;3.60;2.72;;;;;;;;;;5043994;28;20047;-69
2022/04/27 15:03:41;;;;;;;7.75;2.70;;;;;;;;;;5043661;28;20025;-70
2022/04/27 15:06:07;;;;;;;3.80;3.05;;;;;;;;;;5039419;28;20182;-69
2022/04/27 15:08:34;;;;;;;3.83;2.97;;;;;;;;;;5051790;28;20466;-69
2022/04/27 15:11:00;;;;;;;5.05;3.13;;;;;;;;;;5051781;28;20029;-70
2022/04/27 15:13:26;;;;;;;5.75;3.40;;;;;;;;;;5032336;28;20055;-69
2022/04/27 15:15:52;;;;;;;8.10;3.80;;;;;;;;;;5051053;28;20053;-70
2022/04/27 15:18:18;;;;;;;5.72;3.60;;;;;;;;;;5051523;28;20031;-70
2022/04/27 15:23:29;;;;;;;4.20;3.33;;;;;;;;;;5045600;28;20051;-69
2022/04/27 15:25:55;;;;;;;6.22;3.10;;;;;;;;;;5048127;28;20474;-70
2022/04/27 15:28:21;;;;;;;3.55;2.35;;;;;;;;;;5050184;28;20032;-69
2022/04/27 15:30:47;;;;;;;4.75;3.03;;;;;;;;;;5051316;28;20036;-70
2022/04/27 15:33:14;;;;;;;4.82;3.00;;;;;;;;;;5051071;28;20474;-70
2022/04/27 15:35:40;;;;;;;5.90;3.70;;;;;;;;;;5050337;28;20032;-69
2022/04/27 15:38:07;;;;;;;5.72;3.47;;;;;;;;;;5042504;28;20013;-70
2022/04/27 15:40:34;;;;;;;4.75;3.60;;;;;;;;;;5051425;28;20040;-69
2022/04/27 15:43:06;;;;;;;6.45;3.65;;;;;;;;;;5047333;28;20509;-69
2022/04/27 15:45:32;;;;;;;7.63;3.65;;;;;;;;;;5050499;28;20025;-69
2022/04/27 15:47:58;;;;;;;6.60;4.07;;;;;;;;;;5049344;28;20057;-70
2022/04/27 15:50:25;;;;;;;6.15;3.47;;;;;;;;;;5043958;28;20025;-69
2022/04/27 15:52:51;;;;;;;6.25;4.18;;;;;;;;;;5050782;28;20078;-70
2022/04/27 15:55:17;;;;;;;7.13;4.00;;;;;;;;;;5049230;28;20105;-70
2022/04/27 15:57:43;;;;;;;5.47;3.75;;;;;;;;;;5048773;28;20441;-70
2022/04/27 16:00:10;;;;;;;7.07;4.05;;;;;;;;;;5045357;28;20083;-61
2022/04/27 16:02:37;;;;;;;5.53;3.72;;;;;;;;;;5045682;28;20040;-61
2022/04/27 16:05:04;;;;;;;8.70;4.22;;;;;;;;;;5049509;28;20025;-62
2022/04/27 16:07:32;;;;;;;4.78;3.63;;;;;;;;;;5050937;28;20074;-61
2022/04/27 16:09:59;;;;;;;8.02;4.00;;;;;;;;;;5050055;28;20044;-62
2022/04/27 16:12:25;;;;;;;7.95;4.07;;;;;;;;;;5050537;28;20029;-62
2022/04/27 16:14:51;;;;;;;7.13;3.90;;;;;;;;;;5040095;28;20073;-61